createdAt,value
2023-04-04T00:01:14.095Z,1.57
2023-04-04T00:03:44.417Z,1.20
2023-04-04T00:06:16.584Z,1.70
2023-04-04T00:08:44.644Z,1.73
2023-04-04T00:11:13.865Z,1.40
2023-04-04T00:13:42.469Z,1.57
2023-04-04T00:16:11.695Z,1.20
2023-04-04T00:18:42.823Z,1.70
2023-04-04T00:21:10.908Z,1.40
2023-04-04T00:23:42.644Z,1.63
2023-04-04T00:26:10.996Z,1.60
2023-04-04T00:28:41.811Z,1.67
2023-04-04T00:31:12.265Z,1.23
2023-04-04T00:33:42.880Z,1.57
2023-04-04T00:36:12.321Z,1.30
2023-04-04T00:38:41.886Z,1.20
2023-04-04T00:41:12.616Z,1.37
2023-04-04T00:43:41.660Z,1.30
2023-04-04T00:46:11.003Z,1.33
2023-04-04T00:48:40.503Z,1.47
2023-04-04T00:51:11.081Z,1.43
2023-04-04T00:53:39.263Z,1.20
2023-04-04T00:56:11.966Z,1.70
2023-04-04T00:58:40.591Z,1.33
2023-04-04T01:01:10.943Z,1.30
2023-04-04T01:03:39.785Z,1.40
2023-04-04T01:06:09.689Z,1.23
2023-04-04T01:08:38.934Z,1.60
2023-04-04T01:11:11.685Z,1.20
2023-04-04T01:13:41.139Z,1.20
2023-04-04T01:16:10.889Z,1.30
2023-04-04T01:18:41.288Z,1.57
2023-04-04T01:21:13.254Z,0.80
2023-04-04T01:23:53.090Z,1.23
2023-04-04T01:26:27.016Z,1.40
2023-04-04T01:29:00.647Z,1.40
2023-04-04T01:31:36.160Z,1.57
2023-04-04T01:34:13.114Z,1.30
2023-04-04T01:36:50.341Z,1.23
2023-04-04T01:39:28.202Z,1.27
2023-04-04T01:42:02.377Z,1.13
2023-04-04T01:44:35.348Z,1.00
2023-04-04T01:47:07.016Z,1.10
2023-04-04T01:49:35.473Z,1.17
2023-04-04T01:52:07.283Z,1.17
2023-04-04T01:54:37.041Z,1.30
2023-04-04T01:57:09.267Z,1.23
2023-04-04T01:59:37.463Z,1.50
2023-04-04T02:02:05.855Z,1.40
2023-04-04T02:04:34.079Z,1.30
2023-04-04T02:07:02.604Z,1.17
2023-04-04T02:09:31.106Z,1.20
2023-04-04T02:11:59.908Z,1.30
2023-04-04T02:14:29.444Z,1.10
2023-04-04T02:16:58.654Z,1.30
2023-04-04T02:19:27.290Z,1.23
2023-04-04T02:21:56.455Z,1.33
2023-04-04T02:24:24.593Z,1.20
2023-04-04T02:26:52.712Z,1.63
2023-04-04T02:29:20.730Z,1.03
2023-04-04T02:31:50.239Z,1.63
2023-04-04T02:34:18.365Z,0.97
2023-04-04T02:36:50.946Z,1.30
2023-04-04T02:39:20.746Z,1.10
2023-04-04T02:41:51.157Z,1.33
2023-04-04T02:44:19.288Z,1.10
2023-04-04T02:46:50.599Z,1.23
2023-04-04T02:49:18.845Z,1.63
2023-04-04T02:51:49.787Z,1.10
2023-04-04T02:54:21.529Z,1.20
2023-04-04T02:56:49.912Z,1.27
2023-04-04T02:59:20.233Z,1.10
2023-04-04T03:01:48.407Z,1.77
2023-04-04T03:04:20.933Z,1.30
2023-04-04T03:06:52.279Z,1.37
2023-04-04T03:09:20.422Z,1.13
2023-04-04T03:11:49.094Z,1.37
2023-04-04T03:14:17.246Z,0.97
2023-04-04T03:16:45.505Z,1.40
2023-04-04T03:19:15.931Z,1.20
2023-04-04T03:21:48.338Z,1.20
2023-04-04T03:24:16.519Z,0.90
2023-04-04T03:26:47.054Z,0.93
2023-04-04T03:29:15.338Z,1.70
2023-04-04T03:31:44.248Z,1.30
2023-04-04T03:34:15.730Z,1.33
2023-04-04T03:36:44.066Z,1.10
2023-04-04T03:39:13.513Z,1.00
2023-04-04T03:41:41.614Z,1.40
2023-04-04T03:44:09.722Z,1.30
2023-04-04T03:46:37.908Z,1.60
2023-04-04T03:49:06.061Z,1.83
2023-04-04T03:51:34.234Z,1.63
2023-04-04T03:54:02.349Z,1.60
2023-04-04T03:56:33.990Z,1.33
2023-04-04T03:59:06.423Z,1.40
2023-04-04T04:01:34.551Z,1.37
2023-04-04T04:04:04.122Z,1.10
2023-04-04T04:06:32.652Z,0.90
2023-04-04T04:09:03.418Z,1.40
2023-04-04T04:11:33.416Z,1.00
2023-04-04T04:14:05.085Z,1.27
2023-04-04T04:16:33.863Z,1.57
2023-04-04T04:19:02.455Z,1.60
2023-04-04T04:21:40.530Z,1.70
2023-04-04T04:24:11.402Z,1.43
2023-04-04T04:26:40.950Z,1.20
2023-04-04T04:29:09.085Z,1.00
2023-04-04T04:31:39.112Z,1.97
2023-04-04T04:34:10.539Z,1.20
2023-04-04T04:36:42.662Z,1.00
2023-04-04T04:39:22.431Z,1.03
2023-04-04T04:42:11.038Z,1.50
2023-04-04T04:44:47.136Z,1.20
2023-04-04T04:47:16.052Z,1.43
2023-04-04T04:49:49.272Z,0.90
2023-04-04T04:52:22.336Z,1.70
2023-04-04T04:54:50.974Z,1.43
2023-04-04T04:57:20.504Z,1.53
2023-04-04T04:59:51.334Z,1.60
2023-04-04T05:02:20.377Z,1.10
2023-04-04T05:04:50.976Z,1.40
2023-04-04T05:07:19.257Z,1.70
2023-04-04T05:09:48.450Z,1.80
2023-04-04T05:12:16.674Z,1.50
2023-04-04T05:14:49.694Z,1.67
2023-04-04T05:17:18.564Z,1.77
2023-04-04T05:19:47.059Z,2.30
2023-04-04T05:22:20.186Z,2.00
2023-04-04T05:24:52.480Z,1.83
2023-04-04T05:27:24.683Z,2.30
2023-04-04T05:29:59.907Z,2.13
2023-04-04T05:32:38.172Z,2.13
2023-04-04T05:35:11.883Z,2.17
2023-04-04T05:37:42.704Z,2.50
2023-04-04T05:40:15.673Z,2.17
2023-04-04T05:42:55.431Z,2.10
2023-04-04T05:45:27.422Z,1.77
2023-04-04T05:47:56.114Z,2.00
2023-04-04T05:50:29.566Z,1.90
2023-04-04T05:53:03.013Z,1.80
2023-04-04T05:55:31.483Z,1.70
2023-04-04T05:58:02.036Z,2.10
2023-04-04T06:00:44.870Z,2.07
2023-04-04T06:03:13.835Z,2.03
2023-04-04T06:05:45.241Z,2.30
2023-04-04T06:08:15.718Z,2.77
2023-04-04T06:10:43.897Z,2.77
2023-04-04T06:13:12.117Z,2.90
2023-04-04T06:15:44.425Z,2.23
2023-04-04T06:18:13.389Z,2.63
2023-04-04T06:20:41.831Z,2.23
2023-04-04T06:23:10.341Z,2.50
2023-04-04T06:25:42.592Z,2.67
2023-04-04T06:28:11.350Z,2.17
2023-04-04T06:30:39.815Z,2.10
2023-04-04T06:33:11.037Z,1.83
2023-04-04T06:35:45.429Z,2.13
2023-04-04T06:38:14.798Z,1.70
2023-04-04T06:40:43.177Z,1.90
2023-04-04T06:43:13.889Z,3.23
2023-04-04T06:45:45.981Z,1.97
2023-04-04T06:48:15.819Z,2.10
2023-04-04T06:50:43.971Z,1.97
2023-04-04T06:53:15.229Z,1.60
2023-04-04T06:55:45.766Z,1.70
2023-04-04T06:58:16.627Z,1.60
2023-04-04T07:00:44.809Z,1.60
2023-04-04T07:03:16.909Z,1.50
2023-04-04T07:05:45.326Z,1.77
2023-04-04T07:08:13.612Z,1.50
2023-04-04T07:10:42.071Z,1.67
2023-04-04T07:13:11.063Z,1.80
2023-04-04T07:15:42.343Z,1.70
2023-04-04T07:18:12.915Z,1.73
2023-04-04T07:20:47.652Z,2.13
2023-04-04T07:23:18.351Z,2.13
2023-04-04T07:25:47.083Z,1.60
2023-04-04T07:28:15.305Z,1.40
2023-04-04T07:30:43.447Z,1.53
2023-04-04T07:33:11.926Z,2.43
2023-04-04T07:35:43.891Z,1.73
2023-04-04T07:38:11.992Z,1.73
2023-04-04T07:40:42.629Z,1.60
2023-04-04T07:43:10.882Z,1.90
2023-04-04T07:45:39.090Z,1.70
2023-04-04T07:48:07.973Z,1.90
2023-04-04T07:50:36.412Z,1.50
2023-04-04T07:53:08.151Z,1.77
2023-04-04T07:55:38.655Z,1.60
2023-04-04T07:58:07.024Z,1.70
2023-04-04T08:00:35.228Z,2.00
2023-04-04T08:03:03.487Z,1.73
2023-04-04T08:05:31.659Z,1.70
2023-04-04T08:08:02.361Z,1.40
2023-04-04T08:10:34.217Z,2.93
2023-04-04T08:13:02.520Z,2.07
2023-04-04T08:15:32.923Z,1.90
2023-04-04T08:18:01.597Z,1.60
2023-04-04T08:20:29.915Z,1.80
2023-04-04T08:22:58.543Z,1.57
2023-04-04T08:25:29.425Z,1.37
2023-04-04T08:28:01.293Z,2.00
2023-04-04T08:30:29.533Z,1.50
2023-04-04T08:32:57.673Z,1.63
2023-04-04T08:35:28.155Z,1.57
2023-04-04T08:37:57.304Z,1.40
2023-04-04T08:40:25.667Z,1.57
2023-04-04T08:42:54.321Z,1.60
2023-04-04T08:45:25.611Z,1.50
2023-04-04T08:47:55.658Z,1.27
2023-04-04T08:50:25.216Z,1.90
2023-04-04T08:52:56.771Z,1.40
2023-04-04T08:55:34.887Z,1.20
2023-04-04T08:58:03.735Z,1.23
2023-04-04T09:00:33.614Z,1.30
2023-04-04T09:03:16.247Z,1.60
2023-04-04T09:05:45.716Z,1.20
2023-04-04T09:08:15.843Z,1.30
2023-04-04T09:10:45.457Z,1.33
2023-04-04T09:13:17.052Z,1.50
2023-04-04T09:15:50.121Z,1.67
2023-04-04T09:18:19.120Z,1.80
2023-04-04T09:20:48.645Z,1.40
2023-04-04T09:23:18.683Z,1.27
2023-04-04T09:28:21.653Z,1.50
2023-04-04T09:30:53.823Z,1.30
2023-04-04T09:33:24.053Z,1.43
2023-04-04T09:35:54.892Z,1.40
2023-04-04T09:38:26.539Z,1.33
2023-04-04T09:40:56.072Z,1.83
2023-04-04T09:43:26.182Z,1.40
2023-04-04T09:45:56.488Z,1.90
2023-04-04T09:48:28.901Z,1.40
2023-04-04T09:50:59.192Z,1.40
2023-04-04T09:53:27.723Z,1.70
2023-04-04T09:55:57.105Z,3.03
2023-04-04T09:58:28.620Z,1.50
2023-04-04T10:01:02.428Z,1.47
2023-04-04T10:03:31.652Z,1.47
2023-04-04T10:06:01.387Z,1.57
2023-04-04T10:08:31.190Z,1.43
2023-04-04T10:13:35.696Z,1.80
2023-04-04T10:16:06.061Z,1.70
2023-04-04T10:18:37.806Z,1.43
2023-04-04T10:23:46.526Z,1.43
2023-04-04T10:26:15.043Z,1.40
2023-04-04T10:28:44.310Z,1.50
2023-04-04T10:31:22.172Z,1.90
2023-04-04T10:34:05.930Z,1.60
2023-04-04T10:36:41.844Z,1.87
2023-04-04T10:39:15.209Z,1.30
2023-04-04T10:41:43.897Z,1.60
2023-04-04T10:44:20.170Z,1.60
2023-04-04T10:46:55.702Z,1.40
2023-04-04T10:49:24.148Z,1.30
2023-04-04T10:51:57.019Z,1.80
2023-04-04T10:54:27.795Z,2.03
2023-04-04T10:57:01.534Z,1.60
2023-04-04T10:59:32.388Z,2.10
2023-04-04T11:02:06.814Z,2.10
2023-04-04T11:04:37.980Z,1.57
2023-04-04T11:07:17.052Z,1.40
2023-04-04T11:09:57.802Z,1.80
2023-04-04T11:12:31.341Z,1.80
2023-04-04T11:15:14.393Z,1.40
2023-04-04T11:18:17.263Z,1.30
2023-04-04T11:20:56.635Z,1.57
2023-04-04T11:23:27.450Z,1.60
2023-04-04T11:25:56.243Z,1.83
2023-04-04T11:28:45.367Z,1.80
2023-04-04T11:31:28.283Z,1.60
2023-04-04T11:33:59.624Z,1.50
2023-04-04T11:36:53.221Z,1.40
2023-04-04T11:39:28.453Z,1.70
2023-04-04T11:41:58.800Z,1.70
2023-04-04T11:44:32.152Z,1.57
2023-04-04T11:47:10.427Z,1.70
2023-04-04T11:49:41.671Z,1.57
2023-04-04T11:52:13.677Z,2.03
2023-04-04T11:54:44.050Z,2.10
2023-04-04T11:57:15.875Z,1.87
2023-04-04T11:59:47.971Z,1.50
2023-04-04T12:02:20.119Z,1.67
2023-04-04T12:04:53.402Z,1.47
2023-04-04T12:07:22.001Z,2.00
2023-04-04T12:09:50.656Z,2.03
2023-04-04T12:12:19.097Z,2.07
2023-04-04T12:14:47.798Z,1.80
2023-04-04T12:17:18.402Z,1.77
2023-04-04T12:19:47.134Z,1.80
2023-04-04T12:22:16.617Z,1.70
2023-04-04T12:24:44.789Z,1.97
2023-04-04T12:27:13.236Z,1.73
2023-04-04T12:29:41.633Z,1.40
2023-04-04T12:32:13.659Z,1.90
2023-04-04T12:34:48.664Z,2.47
2023-04-04T12:37:23.597Z,1.87
2023-04-04T12:39:52.365Z,1.87
2023-04-04T12:42:24.754Z,1.60
2023-04-04T12:44:53.943Z,1.47
2023-04-04T12:47:24.302Z,2.00
2023-04-04T12:49:55.376Z,1.67
2023-04-04T12:52:32.232Z,1.70
2023-04-04T12:55:08.861Z,2.30
2023-04-04T12:57:37.694Z,2.00
2023-04-04T13:00:09.478Z,1.70
2023-04-04T13:02:44.100Z,1.77
2023-04-04T13:05:16.636Z,1.97
2023-04-04T13:07:50.835Z,2.00
2023-04-04T13:10:21.415Z,1.90
2023-04-04T13:12:58.620Z,1.97
2023-04-04T13:15:51.451Z,2.23
2023-04-04T13:18:22.520Z,1.70
2023-04-04T13:20:51.274Z,1.70
2023-04-04T13:23:24.535Z,2.10
2023-04-04T13:25:52.749Z,2.40
2023-04-04T13:28:21.230Z,1.97
2023-04-04T13:30:52.409Z,2.63
2023-04-04T13:33:22.247Z,1.90
2023-04-04T13:35:51.383Z,2.27
2023-04-04T13:38:24.714Z,2.40
2023-04-04T13:40:54.442Z,2.23
2023-04-04T13:43:25.378Z,2.10
2023-04-04T13:45:55.551Z,1.90
2023-04-04T13:48:26.353Z,2.10
2023-04-04T13:50:57.501Z,1.90
2023-04-04T13:53:26.983Z,1.93
2023-04-04T13:58:27.408Z,1.90
2023-04-04T14:00:57.495Z,1.87
2023-04-04T14:03:26.025Z,2.40
2023-04-04T14:05:54.258Z,1.70
2023-04-04T14:08:26.540Z,1.87
2023-04-04T14:10:54.687Z,2.30
2023-04-04T14:13:30.071Z,1.80
2023-04-04T14:16:00.782Z,2.03
2023-04-04T14:18:29.020Z,2.23
2023-04-04T14:20:57.705Z,2.33
2023-04-04T14:23:30.621Z,2.13
2023-04-04T14:25:58.978Z,1.87
2023-04-04T14:28:27.142Z,2.00
2023-04-04T14:30:55.300Z,2.67
2023-04-04T14:33:23.760Z,2.00
2023-04-04T14:35:52.046Z,1.90
2023-04-04T14:38:20.638Z,2.03
2023-04-04T14:40:50.551Z,1.67
2023-04-04T14:43:18.746Z,2.90
2023-04-04T14:45:47.101Z,1.80
2023-04-04T14:48:15.434Z,2.10
2023-04-04T14:50:46.057Z,2.03
2023-04-04T14:53:17.298Z,2.00
2023-04-04T14:55:49.151Z,2.10
2023-04-04T14:58:19.869Z,2.00
2023-04-04T15:00:48.239Z,1.70
2023-04-04T15:03:16.559Z,2.10
2023-04-04T15:05:47.064Z,2.13
2023-04-04T15:08:15.150Z,2.00
2023-04-04T15:10:43.408Z,2.10
2023-04-04T15:13:15.386Z,2.10
2023-04-04T15:15:43.678Z,1.93
2023-04-04T15:18:11.891Z,2.47
2023-04-04T15:20:40.468Z,2.23
2023-04-04T15:23:12.383Z,2.70
2023-04-04T15:25:41.379Z,1.97
2023-04-04T15:28:09.534Z,1.83
2023-04-04T15:30:41.814Z,1.80
2023-04-04T15:33:13.066Z,2.20
2023-04-04T15:35:43.639Z,2.07
2023-04-04T15:38:11.890Z,2.10
2023-04-04T15:40:40.348Z,1.93
2023-04-04T15:43:08.724Z,2.20
2023-04-04T15:45:39.500Z,2.13
2023-04-04T15:48:11.313Z,2.10
2023-04-04T15:50:41.765Z,1.80
2023-04-04T15:53:12.735Z,1.80
2023-04-04T15:55:44.422Z,2.40
2023-04-04T15:58:12.551Z,2.13
2023-04-04T16:00:40.863Z,1.70
2023-04-04T16:03:09.196Z,2.00
2023-04-04T16:05:38.914Z,1.63
2023-04-04T16:08:09.402Z,1.93
2023-04-04T16:10:37.818Z,2.40
2023-04-04T16:13:08.538Z,2.17
2023-04-04T16:15:38.923Z,1.90
2023-04-04T16:18:09.782Z,1.90
2023-04-04T16:20:39.474Z,2.10
2023-04-04T16:23:07.778Z,1.90
2023-04-04T16:25:38.884Z,1.80
2023-04-04T16:28:09.108Z,2.10
2023-04-04T16:30:37.424Z,2.03
2023-04-04T16:33:06.857Z,2.07
2023-04-04T16:35:35.114Z,1.93
2023-04-04T16:38:04.678Z,2.00
2023-04-04T16:40:32.933Z,2.13
2023-04-04T16:43:01.222Z,1.83
2023-04-04T16:45:29.640Z,1.80
2023-04-04T16:48:00.048Z,2.30
2023-04-04T16:50:28.310Z,1.90
2023-04-04T16:52:58.987Z,1.70
2023-04-04T16:55:29.137Z,2.10
2023-04-04T16:57:57.377Z,1.83
2023-04-04T17:00:25.729Z,2.10
2023-04-04T17:02:53.940Z,1.73
2023-04-04T17:05:24.728Z,1.53
2023-04-04T17:07:52.894Z,2.30
2023-04-04T17:10:21.310Z,2.17
2023-04-04T17:12:53.120Z,1.90
2023-04-04T17:15:21.387Z,1.70
2023-04-04T17:17:52.118Z,2.00
2023-04-04T17:20:22.727Z,1.80
2023-04-04T17:22:53.996Z,2.00
2023-04-04T17:25:28.893Z,2.13
2023-04-04T17:28:01.055Z,1.60
2023-04-04T17:30:32.041Z,2.10
2023-04-04T17:33:04.016Z,2.40
2023-04-04T17:35:32.246Z,2.20
2023-04-04T17:38:00.513Z,2.20
2023-04-04T17:40:31.317Z,1.87
2023-04-04T17:43:03.465Z,2.40
2023-04-04T17:45:35.038Z,1.67
2023-04-04T17:48:03.900Z,2.20
2023-04-04T17:50:34.298Z,2.50
2023-04-04T17:53:02.758Z,2.07
2023-04-04T17:55:32.031Z,1.80
2023-04-04T17:58:03.642Z,2.30
2023-04-04T18:00:31.819Z,2.00
2023-04-04T18:03:00.127Z,2.10
2023-04-04T18:05:29.067Z,2.17
2023-04-04T18:08:16.113Z,2.13
2023-04-04T18:10:44.606Z,2.20
2023-04-04T18:13:14.207Z,1.53
2023-04-04T18:15:42.650Z,1.93
2023-04-04T18:18:11.133Z,1.93
2023-04-04T18:20:39.836Z,2.10
2023-04-04T18:23:09.302Z,2.00
2023-04-04T18:25:39.644Z,1.67
2023-04-04T18:28:10.332Z,2.13
2023-04-04T18:30:40.102Z,2.53
2023-04-04T18:33:08.631Z,1.97
2023-04-04T18:35:36.890Z,2.00
2023-04-04T18:38:05.125Z,2.20
2023-04-04T18:40:33.275Z,2.33
2023-04-04T18:43:03.379Z,1.93
2023-04-04T18:45:39.196Z,2.37
2023-04-04T18:48:12.721Z,2.33
2023-04-04T18:50:41.143Z,2.10
2023-04-04T18:53:09.526Z,2.30
2023-04-04T18:55:38.068Z,3.17
2023-04-04T18:58:06.879Z,2.80
2023-04-04T19:00:37.334Z,2.30
2023-04-04T19:03:07.605Z,2.83
2023-04-04T19:05:39.707Z,2.20
2023-04-04T19:08:13.202Z,2.77
2023-04-04T19:10:47.239Z,2.40
2023-04-04T19:13:18.436Z,3.13
2023-04-04T19:15:47.043Z,4.87
2023-04-04T19:18:15.501Z,4.60
2023-04-04T19:20:47.231Z,4.20
2023-04-04T19:23:18.130Z,3.57
2023-04-04T19:25:50.835Z,4.40
2023-04-04T19:28:19.173Z,5.50
2023-04-04T19:30:49.004Z,5.03
2023-04-04T19:33:20.065Z,4.90
2023-04-04T19:35:54.889Z,5.07
2023-04-04T19:38:25.969Z,4.73
2023-04-04T19:40:57.525Z,3.67
2023-04-04T19:43:25.978Z,3.17
2023-04-04T19:45:57.405Z,2.87
2023-04-04T19:48:43.399Z,2.80
2023-04-04T19:51:43.479Z,2.87
2023-04-04T19:54:15.175Z,2.60
2023-04-04T19:56:47.742Z,2.10
2023-04-04T20:00:05.193Z,2.50
2023-04-04T20:03:03.199Z,2.30
2023-04-04T20:05:57.396Z,2.20
2023-04-04T20:08:33.395Z,2.17
2023-04-04T20:11:01.616Z,2.40
2023-04-04T20:13:29.739Z,2.10
2023-04-04T20:16:03.666Z,2.00
2023-04-04T20:18:33.266Z,2.33
2023-04-04T20:21:05.422Z,1.90
2023-04-04T20:23:43.674Z,2.70
2023-04-04T20:26:16.293Z,2.20
2023-04-04T20:28:46.737Z,2.67
2023-04-04T20:31:19.716Z,2.50
2023-04-04T20:33:51.639Z,2.87
2023-04-04T20:36:33.646Z,2.50
2023-04-04T20:39:03.633Z,2.97
2023-04-04T20:41:34.383Z,2.50
2023-04-04T20:44:22.387Z,2.70
2023-04-04T20:46:50.718Z,2.80
2023-04-04T20:49:21.871Z,2.73
2023-04-04T20:51:55.018Z,2.93
2023-04-04T20:54:24.844Z,2.50
2023-04-04T20:56:55.443Z,3.20
2023-04-04T20:59:44.862Z,2.57
2023-04-04T21:02:17.040Z,2.60
2023-04-04T21:04:48.289Z,2.77
2023-04-04T21:08:12.363Z,2.93
2023-04-04T21:10:51.310Z,3.77
2023-04-04T21:13:28.326Z,3.50
2023-04-04T21:16:02.159Z,3.70
2023-04-04T21:18:33.365Z,3.07
2023-04-04T21:21:12.816Z,3.03
2023-04-04T21:23:49.772Z,3.13
2023-04-04T21:26:31.781Z,3.37
2023-04-04T21:29:01.418Z,2.67
2023-04-04T21:31:35.547Z,2.60
2023-04-04T21:34:11.520Z,3.40
2023-04-04T21:36:40.731Z,2.90
2023-04-04T21:39:15.973Z,3.00
2023-04-04T21:41:46.024Z,3.10
2023-04-04T21:44:16.557Z,3.40
2023-04-04T21:46:44.856Z,3.20
2023-04-04T21:49:13.043Z,2.93
2023-04-04T21:51:43.809Z,2.70
2023-04-04T21:54:12.475Z,2.63
2023-04-04T21:56:41.029Z,3.00
2023-04-04T21:59:12.877Z,3.20
2023-04-04T22:01:41.353Z,2.87
2023-04-04T22:04:11.902Z,3.50
2023-04-04T22:06:40.078Z,3.47
2023-04-04T22:09:08.845Z,3.10
2023-04-04T22:11:44.246Z,3.47
2023-04-04T22:14:17.463Z,3.13
2023-04-04T22:16:46.244Z,2.77
2023-04-04T22:19:14.584Z,2.83
2023-04-04T22:21:47.040Z,3.20
2023-04-04T22:24:18.915Z,2.80
2023-04-04T22:26:50.536Z,2.90
2023-04-04T22:29:20.118Z,3.17
2023-04-04T22:31:50.715Z,3.13
2023-04-04T22:34:19.034Z,2.90
2023-04-04T22:36:47.683Z,3.33
2023-04-04T22:39:16.338Z,3.60
2023-04-04T22:41:47.006Z,3.33
2023-04-04T22:44:15.135Z,2.60
2023-04-04T22:46:47.296Z,3.23
2023-04-04T22:49:16.190Z,3.87
2023-04-04T22:51:45.601Z,3.20
2023-04-04T22:54:15.598Z,3.17
2023-04-04T22:56:46.485Z,3.07
2023-04-04T22:59:16.925Z,3.43
2023-04-04T23:01:49.388Z,2.97
2023-04-04T23:04:17.730Z,3.07
2023-04-04T23:06:46.405Z,3.27
2023-04-04T23:09:14.562Z,3.40
2023-04-04T23:11:42.731Z,3.47
2023-04-04T23:14:14.982Z,3.33
2023-04-04T23:16:43.833Z,3.10
2023-04-04T23:19:15.654Z,3.10
2023-04-04T23:21:46.129Z,2.90
2023-04-04T23:24:14.224Z,3.30
2023-04-04T23:26:44.449Z,3.17
2023-04-04T23:29:14.620Z,3.87
2023-04-04T23:31:42.951Z,3.30
2023-04-04T23:34:11.198Z,3.43
2023-04-04T23:36:40.731Z,3.33
2023-04-04T23:39:09.220Z,3.17
2023-04-04T23:41:37.400Z,3.00
2023-04-04T23:44:07.586Z,3.33
2023-04-04T23:46:38.735Z,3.80
2023-04-04T23:49:09.392Z,3.20
2023-04-04T23:51:39.050Z,3.17
2023-04-04T23:54:09.411Z,3.20
2023-04-04T23:56:40.043Z,3.03
2023-04-04T23:59:08.491Z,3.60
